createdAt,value
2022-08-26T00:02:19.405Z,1.50
2022-08-26T00:04:49.539Z,1.30
2022-08-26T00:07:18.922Z,1.20
2022-08-26T00:09:47.592Z,1.27
2022-08-26T00:12:16.290Z,1.30
2022-08-26T00:14:44.759Z,1.43
2022-08-26T00:17:14.812Z,1.57
2022-08-26T00:19:43.893Z,1.60
2022-08-26T00:22:12.722Z,1.37
2022-08-26T00:24:48.958Z,1.40
2022-08-26T00:27:17.439Z,1.37
2022-08-26T00:29:45.983Z,1.50
2022-08-26T00:32:16.090Z,1.20
2022-08-26T00:34:44.679Z,1.30
2022-08-26T00:37:16.302Z,1.90
2022-08-26T00:39:45.661Z,1.50
2022-08-26T00:42:14.278Z,1.50
2022-08-26T00:44:44.341Z,1.40
2022-08-26T00:47:15.838Z,1.70
2022-08-26T00:49:49.374Z,1.57
2022-08-26T00:52:20.670Z,1.70
2022-08-26T00:54:55.167Z,1.57
2022-08-26T00:57:25.586Z,1.50
2022-08-26T00:59:56.835Z,1.63
2022-08-26T01:02:25.888Z,1.43
2022-08-26T01:05:00.902Z,1.43
2022-08-26T01:07:32.540Z,1.50
2022-08-26T01:10:04.311Z,1.40
2022-08-26T01:12:35.110Z,1.40
2022-08-26T01:15:08.195Z,1.27
2022-08-26T01:17:39.661Z,1.50
2022-08-26T01:20:12.576Z,1.40
2022-08-26T01:22:46.201Z,1.60
2022-08-26T01:25:16.510Z,1.30
2022-08-26T01:27:46.555Z,1.30
2022-08-26T01:30:18.826Z,1.30
2022-08-26T01:32:47.825Z,1.40
2022-08-26T01:35:16.603Z,1.30
2022-08-26T01:37:50.092Z,1.37
2022-08-26T01:40:23.793Z,1.50
2022-08-26T01:42:53.706Z,1.30
2022-08-26T01:45:25.136Z,1.27
2022-08-26T01:47:56.820Z,1.20
2022-08-26T01:50:30.425Z,1.20
2022-08-26T01:53:01.494Z,1.30
2022-08-26T01:55:33.167Z,1.10
2022-08-26T01:58:05.208Z,1.17
2022-08-26T02:00:34.795Z,1.10
2022-08-26T02:03:18.766Z,1.30
2022-08-26T02:05:48.751Z,1.20
2022-08-26T02:08:24.859Z,1.13
2022-08-26T02:10:54.837Z,1.27
2022-08-26T02:13:24.112Z,1.00
2022-08-26T02:15:52.981Z,1.20
2022-08-26T02:18:22.520Z,1.10
2022-08-26T02:20:51.810Z,1.33
2022-08-26T02:23:21.854Z,1.00
2022-08-26T02:25:55.618Z,1.10
2022-08-26T02:28:26.643Z,1.40
2022-08-26T02:30:55.785Z,1.40
2022-08-26T02:33:24.513Z,1.20
2022-08-26T02:35:52.988Z,1.10
2022-08-26T02:38:23.442Z,1.20
2022-08-26T02:40:52.397Z,1.20
2022-08-26T02:43:31.335Z,1.00
2022-08-26T02:46:02.408Z,1.10
2022-08-26T02:48:31.670Z,1.10
2022-08-26T02:51:01.855Z,1.20
2022-08-26T02:53:35.445Z,1.20
2022-08-26T02:56:04.369Z,1.10
2022-08-26T02:58:33.693Z,1.50
2022-08-26T03:01:04.869Z,1.40
2022-08-26T03:03:34.663Z,1.33
2022-08-26T03:06:03.150Z,1.40
2022-08-26T03:08:32.985Z,1.20
2022-08-26T03:11:01.716Z,1.20
2022-08-26T03:13:30.363Z,1.10
2022-08-26T03:15:59.540Z,1.10
2022-08-26T03:18:28.182Z,0.90
2022-08-26T03:20:56.658Z,0.93
2022-08-26T03:23:26.402Z,1.00
2022-08-26T03:25:56.433Z,1.07
2022-08-26T03:28:27.036Z,1.00
2022-08-26T03:30:55.006Z,0.87
2022-08-26T03:33:23.591Z,0.90
2022-08-26T03:35:52.242Z,0.90
2022-08-26T03:38:21.009Z,0.73
2022-08-26T03:40:49.706Z,1.00
2022-08-26T03:43:21.525Z,0.90
2022-08-26T03:45:50.127Z,0.80
2022-08-26T03:48:19.900Z,1.00
2022-08-26T03:50:48.805Z,0.90
2022-08-26T03:53:20.556Z,0.90
2022-08-26T03:55:52.019Z,0.70
2022-08-26T03:58:24.171Z,0.90
2022-08-26T04:00:55.345Z,1.00
2022-08-26T04:03:38.137Z,0.80
2022-08-26T04:06:06.882Z,0.90
2022-08-26T04:08:35.485Z,0.90
2022-08-26T04:11:03.981Z,0.87
2022-08-26T04:13:34.526Z,0.80
2022-08-26T04:16:03.155Z,0.60
2022-08-26T04:18:37.078Z,1.00
2022-08-26T04:21:07.814Z,0.90
2022-08-26T04:23:47.087Z,0.70
2022-08-26T04:26:16.513Z,0.90
2022-08-26T04:28:46.493Z,0.80
2022-08-26T04:31:16.685Z,0.90
2022-08-26T04:33:46.109Z,0.70
2022-08-26T04:36:16.734Z,0.83
2022-08-26T04:38:46.157Z,0.97
2022-08-26T04:41:17.018Z,0.87
2022-08-26T04:43:50.350Z,0.80
2022-08-26T04:46:22.208Z,0.90
2022-08-26T04:48:52.441Z,0.80
2022-08-26T04:51:21.378Z,0.80
2022-08-26T04:53:50.770Z,0.90
2022-08-26T04:56:19.252Z,0.87
2022-08-26T04:58:49.685Z,0.90
2022-08-26T05:01:19.044Z,0.77
2022-08-26T05:03:47.616Z,0.90
2022-08-26T05:06:16.193Z,1.00
2022-08-26T05:08:47.908Z,0.80
2022-08-26T05:11:16.576Z,0.70
2022-08-26T05:13:45.071Z,0.90
2022-08-26T05:16:16.220Z,0.80
2022-08-26T05:18:46.344Z,0.87
2022-08-26T05:21:20.196Z,1.00
2022-08-26T05:23:50.586Z,0.63
2022-08-26T05:26:22.943Z,0.90
2022-08-26T05:28:54.892Z,0.93
2022-08-26T05:31:27.145Z,0.80
2022-08-26T05:33:57.757Z,0.97
2022-08-26T05:36:28.087Z,0.90
2022-08-26T05:38:56.587Z,0.90
2022-08-26T05:41:34.197Z,0.83
2022-08-26T05:44:05.981Z,1.00
2022-08-26T05:46:36.946Z,0.77
2022-08-26T05:49:05.895Z,0.90
2022-08-26T05:51:35.066Z,0.93
2022-08-26T05:54:04.605Z,0.80
2022-08-26T05:56:33.526Z,0.90
2022-08-26T05:59:03.389Z,0.97
2022-08-26T06:01:35.742Z,1.00
2022-08-26T06:04:06.101Z,1.00
2022-08-26T06:06:36.890Z,0.80
2022-08-26T06:09:10.833Z,0.93
2022-08-26T06:11:39.886Z,0.77
2022-08-26T06:14:09.062Z,0.87
2022-08-26T06:16:40.934Z,0.90
2022-08-26T06:19:11.949Z,0.90
2022-08-26T06:21:41.282Z,0.93
2022-08-26T06:24:28.297Z,1.00
2022-08-26T06:26:57.800Z,1.17
2022-08-26T06:29:27.137Z,1.00
2022-08-26T06:31:57.057Z,1.07
2022-08-26T06:34:30.504Z,1.00
2022-08-26T06:37:01.923Z,0.80
2022-08-26T06:39:31.836Z,1.00
2022-08-26T06:42:00.472Z,1.07
2022-08-26T06:44:29.199Z,1.30
2022-08-26T06:46:58.039Z,1.03
2022-08-26T06:49:28.552Z,1.00
2022-08-26T06:51:58.708Z,1.00
2022-08-26T06:54:27.620Z,1.13
2022-08-26T06:56:57.538Z,1.00
2022-08-26T06:59:26.224Z,0.97
2022-08-26T07:01:55.238Z,1.10
2022-08-26T07:04:25.034Z,0.90
2022-08-26T07:06:58.337Z,1.10
2022-08-26T07:09:28.082Z,1.20
2022-08-26T07:11:57.265Z,1.30
2022-08-26T07:14:26.232Z,1.00
2022-08-26T07:16:55.070Z,1.03
2022-08-26T07:19:30.119Z,0.90
2022-08-26T07:22:02.147Z,1.30
2022-08-26T07:24:32.369Z,0.97
2022-08-26T07:27:01.543Z,0.93
2022-08-26T07:29:31.742Z,1.20
2022-08-26T07:32:00.804Z,1.30
2022-08-26T07:34:29.278Z,1.20
2022-08-26T07:36:58.841Z,1.10
2022-08-26T07:39:31.633Z,1.20
2022-08-26T07:42:00.587Z,1.20
2022-08-26T07:44:29.757Z,1.00
2022-08-26T07:46:58.852Z,1.20
2022-08-26T07:49:28.081Z,1.10
2022-08-26T07:51:57.169Z,1.20
2022-08-26T07:54:27.116Z,1.30
2022-08-26T07:56:57.782Z,1.80
2022-08-26T07:59:27.122Z,1.20
2022-08-26T08:01:57.583Z,1.70
2022-08-26T08:04:26.646Z,1.50
2022-08-26T08:06:56.087Z,1.40
2022-08-26T08:09:24.958Z,1.70
2022-08-26T08:11:53.822Z,1.47
2022-08-26T08:14:23.977Z,1.43
2022-08-26T08:16:54.687Z,1.50
2022-08-26T08:19:28.408Z,1.33
2022-08-26T08:22:17.106Z,1.30
2022-08-26T08:24:49.735Z,1.20
2022-08-26T08:27:24.115Z,1.50
2022-08-26T08:29:55.298Z,1.30
2022-08-26T08:32:24.134Z,1.40
2022-08-26T08:34:53.017Z,1.30
2022-08-26T08:37:21.839Z,1.27
2022-08-26T08:39:50.550Z,1.53
2022-08-26T08:42:45.952Z,1.40
2022-08-26T08:45:20.248Z,1.50
2022-08-26T08:47:50.701Z,1.33
2022-08-26T08:50:24.866Z,1.13
2022-08-26T08:52:57.917Z,1.57
2022-08-26T08:55:32.494Z,1.43
2022-08-26T08:58:04.853Z,1.47
2022-08-26T09:00:39.837Z,1.30
2022-08-26T09:03:10.980Z,1.30
2022-08-26T09:05:48.691Z,1.30
2022-08-26T09:08:20.086Z,1.43
2022-08-26T09:10:51.045Z,1.50
2022-08-26T09:13:25.124Z,1.30
2022-08-26T09:16:00.706Z,1.40
2022-08-26T09:18:35.718Z,1.30
2022-08-26T09:21:05.162Z,1.47
2022-08-26T09:23:35.841Z,1.47
2022-08-26T09:26:14.765Z,1.30
2022-08-26T09:28:44.123Z,1.40
2022-08-26T09:31:15.167Z,1.43
2022-08-26T09:33:44.126Z,1.60
2022-08-26T09:36:22.909Z,1.40
2022-08-26T09:38:53.694Z,1.40
2022-08-26T09:41:24.676Z,1.40
2022-08-26T09:44:17.094Z,1.30
2022-08-26T09:46:54.414Z,1.33
2022-08-26T09:49:26.976Z,1.37
2022-08-26T09:52:06.113Z,1.30
2022-08-26T09:54:35.161Z,1.30
2022-08-26T09:57:15.953Z,1.30
2022-08-26T09:59:44.747Z,1.40
2022-08-26T10:02:25.066Z,1.30
2022-08-26T10:04:55.246Z,1.37
2022-08-26T10:07:42.994Z,1.40
2022-08-26T10:10:13.809Z,1.63
2022-08-26T10:12:46.585Z,1.50
2022-08-26T10:15:17.206Z,1.33
2022-08-26T10:17:49.399Z,1.60
2022-08-26T10:20:23.581Z,1.70
2022-08-26T10:22:55.334Z,1.43
2022-08-26T10:25:27.686Z,1.60
2022-08-26T10:28:02.260Z,1.60
2022-08-26T10:30:33.710Z,1.60
2022-08-26T10:33:05.486Z,1.77
2022-08-26T10:35:34.741Z,1.50
2022-08-26T10:38:04.778Z,1.50
2022-08-26T10:40:39.685Z,1.63
2022-08-26T10:43:11.727Z,1.77
2022-08-26T10:45:44.674Z,1.50
2022-08-26T10:48:18.240Z,1.50
2022-08-26T10:50:48.449Z,1.60
2022-08-26T10:53:19.749Z,1.80
2022-08-26T10:55:59.189Z,1.70
2022-08-26T10:58:38.729Z,1.87
2022-08-26T11:01:28.340Z,1.80
2022-08-26T11:04:01.912Z,1.50
2022-08-26T11:06:31.634Z,1.73
2022-08-26T11:09:01.078Z,1.50
2022-08-26T11:11:46.915Z,1.67
2022-08-26T11:14:41.134Z,1.40
2022-08-26T11:17:41.863Z,1.70
2022-08-26T11:20:14.689Z,1.70
2022-08-26T11:22:47.995Z,1.80
2022-08-26T11:25:18.253Z,1.80
2022-08-26T11:28:05.371Z,1.67
2022-08-26T11:30:42.780Z,1.77
2022-08-26T11:33:11.862Z,1.90
2022-08-26T11:35:49.434Z,1.57
2022-08-26T11:38:24.113Z,1.70
2022-08-26T11:41:07.313Z,1.80
2022-08-26T11:43:36.628Z,1.77
2022-08-26T11:46:07.397Z,1.57
2022-08-26T11:48:39.122Z,1.80
2022-08-26T11:51:11.169Z,1.70
2022-08-26T11:53:41.014Z,2.00
2022-08-26T11:56:11.134Z,1.80
2022-08-26T11:58:44.015Z,1.60
2022-08-26T12:01:14.746Z,1.60
2022-08-26T12:03:49.134Z,1.70
2022-08-26T12:06:24.357Z,1.67
2022-08-26T12:08:53.946Z,1.60
2022-08-26T12:11:24.530Z,1.70
2022-08-26T12:13:57.716Z,1.60
2022-08-26T12:16:27.254Z,1.60
2022-08-26T12:18:56.490Z,1.60
2022-08-26T12:21:29.441Z,1.60
2022-08-26T12:24:03.204Z,1.60
2022-08-26T12:26:33.242Z,1.67
2022-08-26T12:29:09.974Z,1.80
2022-08-26T12:31:49.029Z,1.70
2022-08-26T12:34:18.750Z,1.77
2022-08-26T12:36:49.895Z,1.50
2022-08-26T12:39:27.421Z,1.30
2022-08-26T12:41:56.881Z,1.60
2022-08-26T12:44:53.763Z,1.40
2022-08-26T12:47:30.982Z,1.50
2022-08-26T12:50:13.026Z,1.40
2022-08-26T12:52:45.137Z,1.60
2022-08-26T12:55:21.181Z,1.40
2022-08-26T12:57:49.898Z,1.30
2022-08-26T13:00:28.313Z,1.40
2022-08-26T13:02:57.614Z,1.40
2022-08-26T13:05:27.647Z,1.20
2022-08-26T13:08:11.058Z,1.43
2022-08-26T13:10:42.429Z,1.30
2022-08-26T13:13:11.025Z,1.43
2022-08-26T13:15:39.690Z,1.47
2022-08-26T13:18:08.181Z,1.30
2022-08-26T13:20:37.074Z,1.37
2022-08-26T13:23:05.787Z,1.20
2022-08-26T13:25:34.338Z,1.20
2022-08-26T13:28:04.324Z,1.30
2022-08-26T13:30:33.201Z,1.40
2022-08-26T13:33:02.369Z,1.43
2022-08-26T13:35:32.413Z,1.23
2022-08-26T13:38:01.235Z,1.73
2022-08-26T13:40:34.383Z,1.60
2022-08-26T13:43:04.717Z,1.43
2022-08-26T13:45:33.345Z,1.50
2022-08-26T13:48:01.925Z,1.80
2022-08-26T13:50:30.594Z,1.70
2022-08-26T13:52:59.249Z,1.70
2022-08-26T13:55:27.835Z,1.57
2022-08-26T13:57:56.802Z,1.70
2022-08-26T14:00:26.830Z,1.40
2022-08-26T14:02:55.811Z,1.20
2022-08-26T14:05:24.490Z,1.77
2022-08-26T14:07:53.082Z,1.40
2022-08-26T14:10:21.881Z,1.50
2022-08-26T14:12:50.438Z,1.40
2022-08-26T14:15:19.269Z,1.20
2022-08-26T14:17:49.940Z,1.33
2022-08-26T14:20:22.108Z,1.40
2022-08-26T14:23:12.581Z,1.60
2022-08-26T14:25:39.401Z,1.30
2022-08-26T14:28:08.015Z,1.27
2022-08-26T14:30:36.516Z,1.50
2022-08-26T14:33:06.758Z,1.47
2022-08-26T14:35:35.361Z,1.20
2022-08-26T14:38:03.856Z,1.80
2022-08-26T14:40:34.042Z,1.30
2022-08-26T14:43:07.573Z,1.57
2022-08-26T14:45:37.922Z,1.40
2022-08-26T14:48:08.764Z,1.20
2022-08-26T14:50:37.481Z,1.20
2022-08-26T14:53:23.514Z,1.40
2022-08-26T14:55:52.134Z,1.23
2022-08-26T14:58:20.774Z,1.33
2022-08-26T15:00:49.389Z,1.40
2022-08-26T15:05:52.950Z,1.20
2022-08-26T15:08:21.867Z,1.30
2022-08-26T15:10:50.792Z,1.30
2022-08-26T15:13:19.602Z,1.13
2022-08-26T15:15:48.173Z,1.30
2022-08-26T15:18:16.669Z,1.30
2022-08-26T15:20:46.766Z,1.20
2022-08-26T15:23:15.298Z,1.07
2022-08-26T15:25:44.824Z,1.30
2022-08-26T15:28:13.710Z,1.10
2022-08-26T15:30:43.104Z,1.10
2022-08-26T15:33:15.314Z,1.07
2022-08-26T15:35:44.614Z,1.20
2022-08-26T15:38:14.505Z,1.00
2022-08-26T15:40:43.423Z,1.10
2022-08-26T15:43:27.850Z,1.10
2022-08-26T15:45:57.074Z,1.00
2022-08-26T15:48:26.194Z,1.30
2022-08-26T15:50:56.022Z,1.20
2022-08-26T15:53:26.338Z,1.00
2022-08-26T15:55:56.354Z,1.10
2022-08-26T15:58:26.416Z,1.20
2022-08-26T16:00:56.078Z,1.27
2022-08-26T16:03:24.753Z,1.20
2022-08-26T16:05:53.487Z,1.20
2022-08-26T16:08:22.431Z,1.20
2022-08-26T16:10:52.498Z,0.90
2022-08-26T16:13:21.487Z,1.30
2022-08-26T16:15:50.634Z,1.10
2022-08-26T16:18:20.485Z,1.13
2022-08-26T16:21:02.838Z,1.20
2022-08-26T16:23:45.162Z,1.30
2022-08-26T16:26:16.387Z,1.20
2022-08-26T16:28:45.001Z,1.30
2022-08-26T16:31:13.933Z,1.63
2022-08-26T16:33:42.727Z,1.50
2022-08-26T16:36:12.150Z,1.87
2022-08-26T16:38:40.740Z,1.60
2022-08-26T16:41:09.821Z,1.40
2022-08-26T16:43:39.851Z,1.57
2022-08-26T16:46:08.607Z,1.57
2022-08-26T16:48:37.250Z,1.50
2022-08-26T16:51:06.169Z,1.50
2022-08-26T16:53:34.703Z,1.60
2022-08-26T16:56:03.355Z,1.90
2022-08-26T16:58:32.026Z,1.53
2022-08-26T17:01:01.875Z,1.60
2022-08-26T17:03:30.538Z,1.50
2022-08-26T17:05:59.083Z,1.50
2022-08-26T17:08:28.734Z,1.70
2022-08-26T17:10:57.886Z,1.90
2022-08-26T17:13:35.147Z,1.63
2022-08-26T17:16:07.522Z,1.67
2022-08-26T17:18:36.493Z,1.53
2022-08-26T17:21:05.838Z,1.73
2022-08-26T17:23:34.417Z,1.63
2022-08-26T17:26:03.013Z,1.40
2022-08-26T17:28:32.070Z,2.40
2022-08-26T17:31:01.256Z,1.90
2022-08-26T17:33:31.309Z,1.90
2022-08-26T17:36:00.333Z,1.97
2022-08-26T17:38:29.197Z,1.80
2022-08-26T17:40:58.201Z,1.87
2022-08-26T17:43:27.366Z,1.90
2022-08-26T17:46:07.075Z,1.80
2022-08-26T17:48:38.021Z,1.80
2022-08-26T17:51:08.586Z,2.00
2022-08-26T17:53:37.234Z,1.80
2022-08-26T17:56:07.246Z,1.77
2022-08-26T17:58:37.389Z,1.97
2022-08-26T18:01:06.263Z,2.03
2022-08-26T18:03:35.319Z,1.70
2022-08-26T18:06:09.552Z,1.60
2022-08-26T18:08:38.246Z,1.90
2022-08-26T18:11:09.393Z,1.87
2022-08-26T18:13:37.977Z,2.10
2022-08-26T18:16:14.663Z,1.90
2022-08-26T18:18:43.470Z,2.00
2022-08-26T18:21:16.941Z,1.97
2022-08-26T18:23:45.866Z,2.03
2022-08-26T18:26:17.439Z,2.00
2022-08-26T18:28:45.926Z,2.00
2022-08-26T18:31:15.481Z,1.90
2022-08-26T18:33:45.360Z,2.00
2022-08-26T18:36:19.259Z,2.07
2022-08-26T18:38:48.012Z,2.00
2022-08-26T18:41:20.844Z,2.13
2022-08-26T18:43:50.553Z,2.17
2022-08-26T18:46:20.060Z,2.20
2022-08-26T18:48:50.820Z,2.10
2022-08-26T18:51:22.414Z,2.20
2022-08-26T18:53:51.737Z,2.20
2022-08-26T18:56:20.517Z,2.30
2022-08-26T18:58:49.003Z,2.30
2022-08-26T19:01:18.090Z,2.07
2022-08-26T19:03:47.141Z,2.20
2022-08-26T19:06:16.403Z,2.23
2022-08-26T19:08:46.725Z,2.40
2022-08-26T19:11:32.257Z,2.40
2022-08-26T19:14:06.559Z,2.40
2022-08-26T19:16:35.310Z,2.40
2022-08-26T19:19:03.951Z,2.37
2022-08-26T19:21:33.881Z,2.43
2022-08-26T19:24:04.642Z,2.70
2022-08-26T19:26:34.433Z,2.40
2022-08-26T19:29:03.170Z,2.40
2022-08-26T19:31:31.649Z,2.80
2022-08-26T19:34:00.308Z,2.37
2022-08-26T19:36:29.823Z,2.60
2022-08-26T19:38:58.286Z,2.40
2022-08-26T19:41:37.649Z,2.73
2022-08-26T19:44:07.994Z,2.70
2022-08-26T19:49:10.808Z,2.80
2022-08-26T19:51:39.432Z,2.50
2022-08-26T19:54:07.973Z,2.47
2022-08-26T19:56:37.949Z,2.60
2022-08-26T19:59:06.481Z,2.60
2022-08-26T20:01:34.983Z,2.50
2022-08-26T20:04:04.215Z,2.43
2022-08-26T20:06:32.965Z,2.90
2022-08-26T20:09:01.486Z,2.40
2022-08-26T20:11:30.025Z,2.53
2022-08-26T20:13:59.933Z,2.63
2022-08-26T20:16:28.462Z,2.50
2022-08-26T20:19:14.870Z,2.40
2022-08-26T20:21:43.645Z,2.50
2022-08-26T20:24:12.998Z,2.30
2022-08-26T20:26:42.418Z,2.50
2022-08-26T20:29:13.366Z,2.50
2022-08-26T20:31:42.368Z,2.77
2022-08-26T20:34:10.990Z,2.60
2022-08-26T20:36:40.382Z,2.67
2022-08-26T20:39:09.116Z,2.70
2022-08-26T20:41:37.735Z,2.60
2022-08-26T20:44:07.211Z,2.60
2022-08-26T20:46:37.199Z,2.50
2022-08-26T20:49:07.500Z,2.30
2022-08-26T20:51:37.357Z,2.47
2022-08-26T20:54:06.315Z,2.57
2022-08-26T20:56:34.869Z,2.60
2022-08-26T20:59:03.769Z,2.33
2022-08-26T21:01:34.705Z,2.47
2022-08-26T21:04:06.478Z,2.60
2022-08-26T21:06:35.362Z,2.40
2022-08-26T21:09:04.828Z,2.70
2022-08-26T21:11:33.427Z,2.53
2022-08-26T21:14:15.693Z,2.63
2022-08-26T21:16:45.913Z,2.60
2022-08-26T21:19:17.997Z,2.53
2022-08-26T21:21:46.841Z,2.40
2022-08-26T21:24:15.801Z,3.00
2022-08-26T21:26:44.285Z,3.00
2022-08-26T21:29:13.853Z,2.90
2022-08-26T21:31:46.354Z,2.90
2022-08-26T21:34:17.088Z,2.77
2022-08-26T21:36:45.769Z,2.63
2022-08-26T21:39:14.477Z,2.43
2022-08-26T21:41:43.689Z,2.83
2022-08-26T21:44:12.934Z,3.10
2022-08-26T21:46:41.667Z,2.80
2022-08-26T21:49:11.178Z,2.47
2022-08-26T21:51:43.001Z,2.80
2022-08-26T21:54:12.197Z,3.07
2022-08-26T21:56:42.238Z,3.60
2022-08-26T21:59:11.153Z,3.07
2022-08-26T22:01:39.762Z,3.43
2022-08-26T22:04:09.230Z,3.63
2022-08-26T22:06:41.909Z,3.50
2022-08-26T22:09:12.199Z,3.10
2022-08-26T22:11:40.680Z,2.90
2022-08-26T22:14:09.275Z,3.10
2022-08-26T22:16:38.016Z,2.90
2022-08-26T22:19:06.820Z,3.20
2022-08-26T22:21:35.897Z,3.37
2022-08-26T22:24:07.094Z,2.83
2022-08-26T22:26:37.206Z,3.00
2022-08-26T22:29:07.520Z,3.80
2022-08-26T22:31:37.121Z,3.23
2022-08-26T22:34:07.721Z,2.83
2022-08-26T22:36:42.857Z,2.93
2022-08-26T22:39:13.396Z,2.60
2022-08-26T22:41:43.371Z,2.83
2022-08-26T22:44:12.770Z,3.00
2022-08-26T22:46:41.918Z,2.73
2022-08-26T22:49:11.419Z,2.90
2022-08-26T22:51:40.154Z,3.03
2022-08-26T22:54:08.949Z,3.30
2022-08-26T22:56:38.062Z,3.10
2022-08-26T22:59:08.715Z,3.10
2022-08-26T23:01:38.230Z,3.33
2022-08-26T23:04:07.904Z,3.13
2022-08-26T23:06:36.886Z,3.40
2022-08-26T23:09:05.903Z,3.67
2022-08-26T23:11:34.763Z,3.47
2022-08-26T23:14:06.577Z,3.30
2022-08-26T23:16:39.306Z,3.33
2022-08-26T23:19:08.583Z,2.90
2022-08-26T23:21:37.277Z,2.90
2022-08-26T23:24:06.184Z,3.00
2022-08-26T23:26:35.434Z,3.10
2022-08-26T23:29:04.931Z,3.33
2022-08-26T23:31:34.124Z,4.07
2022-08-26T23:34:21.559Z,3.90
2022-08-26T23:36:50.727Z,3.93
2022-08-26T23:39:19.197Z,3.90
2022-08-26T23:41:47.861Z,4.07
2022-08-26T23:44:17.085Z,4.30
2022-08-26T23:46:45.571Z,4.07
2022-08-26T23:49:15.438Z,3.77
2022-08-26T23:52:01.639Z,4.53
2022-08-26T23:54:31.630Z,3.63
2022-08-26T23:57:00.226Z,3.90
2022-08-26T23:59:28.945Z,3.67
